createdAt,value
2017-09-15T09:27:51.360Z,50
2017-09-15T09:29:00.521Z,35
2017-09-15T09:30:09.358Z,35
2017-09-15T09:31:18.272Z,45
2017-09-15T09:32:27.145Z,35
2017-09-15T09:33:35.981Z,30
2017-09-15T09:34:44.822Z,30
2017-09-15T09:35:53.792Z,30
2017-09-15T09:37:02.660Z,20
2017-09-15T09:38:11.499Z,20
2017-09-15T09:39:20.334Z,20
2017-09-15T09:40:29.197Z,20
2017-09-15T09:41:38.594Z,25
2017-09-15T09:42:47.764Z,55
2017-09-15T09:43:57.190Z,25
2017-09-15T09:45:06.517Z,45
2017-09-15T09:46:15.851Z,45
2017-09-15T09:47:25.047Z,35
2017-09-15T09:48:34.581Z,40
2017-09-15T09:49:43.987Z,45
2017-09-15T09:50:52.929Z,30
2017-09-15T09:52:01.767Z,30
2017-09-15T09:53:10.602Z,45
2017-09-15T09:54:20.410Z,50
2017-09-15T09:55:29.300Z,55
2017-09-15T09:56:38.143Z,40
2017-09-15T09:57:46.975Z,50
2017-09-15T09:58:55.809Z,50
2017-09-15T10:00:04.648Z,20
2017-09-15T10:01:13.486Z,45
2017-09-15T10:02:22.329Z,45
2017-09-15T10:03:31.162Z,25
2017-09-15T10:04:40.000Z,35
2017-09-15T10:05:48.835Z,20
2017-09-15T10:06:57.674Z,25
2017-09-15T10:08:06.505Z,40
2017-09-15T10:09:15.671Z,60
2017-09-15T10:10:24.511Z,55
2017-09-15T10:11:33.350Z,45
2017-09-15T10:12:42.208Z,45
2017-09-15T10:13:51.050Z,20
2017-09-15T10:14:59.884Z,45
2017-09-15T10:16:08.721Z,45
2017-09-15T10:17:17.557Z,45
2017-09-15T10:18:26.392Z,20
2017-09-15T10:19:35.231Z,35
2017-09-15T10:20:44.070Z,30
2017-09-15T10:21:53.232Z,35
2017-09-15T10:23:02.070Z,25
2017-09-15T10:24:10.908Z,50
2017-09-15T10:25:19.741Z,40
2017-09-15T10:26:28.576Z,65
2017-09-15T10:27:37.417Z,40
2017-09-15T10:28:46.582Z,70
2017-09-15T10:29:55.418Z,55
2017-09-15T10:31:04.252Z,70
2017-09-15T10:32:13.410Z,95
2017-09-15T10:33:22.255Z,65
2017-09-15T10:34:31.094Z,60
2017-09-15T10:35:39.932Z,50
2017-09-15T10:36:48.765Z,45
2017-09-15T10:37:57.625Z,60
2017-09-15T10:39:06.437Z,75
2017-09-15T10:40:15.270Z,90
2017-09-15T10:41:24.113Z,80
2017-09-15T10:42:32.947Z,70
2017-09-15T10:43:41.783Z,60
2017-09-15T10:44:50.617Z,75
2017-09-15T10:45:59.455Z,75
2017-09-15T10:47:08.295Z,70
2017-09-15T10:48:17.133Z,75
2017-09-15T10:49:25.969Z,70
2017-09-15T10:50:34.803Z,60
2017-09-15T10:51:43.646Z,60
2017-09-15T10:52:52.484Z,50
2017-09-15T10:54:01.321Z,50
2017-09-15T10:55:10.156Z,45
2017-09-15T10:56:18.998Z,35
2017-09-15T10:57:27.837Z,35
2017-09-15T10:58:36.671Z,30
2017-09-15T10:59:45.505Z,30
2017-09-15T11:00:54.336Z,30
2017-09-15T11:02:03.176Z,30
2017-09-15T11:03:12.336Z,30
2017-09-15T11:04:21.172Z,35
2017-09-15T11:05:30.006Z,45
2017-09-15T11:06:38.845Z,55
2017-09-15T11:07:47.682Z,70
2017-09-15T11:08:56.519Z,60
2017-09-15T11:10:05.363Z,65
2017-09-15T11:11:14.198Z,65
2017-09-15T11:12:23.027Z,60
2017-09-15T11:13:31.864Z,50
2017-09-15T11:14:40.700Z,45
2017-09-15T11:15:49.542Z,40
2017-09-15T11:16:58.379Z,35
2017-09-15T11:18:07.213Z,35
2017-09-15T11:19:16.049Z,35
2017-09-15T11:20:24.891Z,35
2017-09-15T11:21:33.728Z,40
2017-09-15T11:22:42.568Z,55
2017-09-15T11:23:51.408Z,60
2017-09-15T11:25:00.243Z,55
2017-09-15T11:26:09.081Z,55
2017-09-15T11:27:17.918Z,65
2017-09-15T11:28:26.759Z,70
2017-09-15T11:29:35.615Z,85
2017-09-15T11:30:44.436Z,55
2017-09-15T11:31:53.272Z,60
2017-09-15T11:33:02.440Z,55
2017-09-15T11:34:11.274Z,60
2017-09-15T11:35:20.114Z,60
2017-09-15T11:36:28.947Z,65
2017-09-15T11:37:37.789Z,60
2017-09-15T11:38:46.628Z,55
2017-09-15T11:39:55.464Z,55
2017-09-15T11:41:04.299Z,50
2017-09-15T11:42:13.132Z,45
2017-09-15T11:43:21.973Z,50
2017-09-15T11:44:30.805Z,55
2017-09-15T11:45:39.646Z,55
2017-09-15T11:46:48.810Z,70
2017-09-15T11:47:57.647Z,60
2017-09-15T11:49:06.489Z,75
2017-09-15T11:50:15.322Z,70
2017-09-15T11:51:24.164Z,85
2017-09-15T11:52:32.998Z,80
2017-09-15T11:53:41.839Z,85
2017-09-15T11:54:50.675Z,45
2017-09-15T11:55:59.511Z,55
2017-09-15T11:57:08.353Z,50
2017-09-15T11:58:17.188Z,35
2017-09-15T11:59:26.031Z,40
2017-09-15T12:00:34.866Z,40
2017-09-15T12:01:43.705Z,40
2017-09-15T12:02:52.537Z,45
2017-09-15T12:04:01.375Z,50
2017-09-15T12:05:10.210Z,50
2017-09-15T12:06:19.050Z,50
2017-09-15T12:07:27.888Z,50
2017-09-15T12:08:36.720Z,50
2017-09-15T12:09:45.556Z,50
2017-09-15T12:10:54.393Z,50
2017-09-15T12:12:03.239Z,45
2017-09-15T12:13:12.397Z,45
2017-09-15T12:14:21.232Z,45
2017-09-15T12:15:30.071Z,50
2017-09-15T12:16:38.907Z,55
2017-09-15T12:17:47.752Z,55
2017-09-15T12:18:56.589Z,60
2017-09-15T12:20:05.427Z,85
2017-09-15T12:21:14.264Z,90
2017-09-15T12:22:23.100Z,90
2017-09-15T12:23:31.937Z,70
2017-09-15T12:24:40.772Z,50
2017-09-15T12:25:49.614Z,45
2017-09-15T12:26:58.455Z,50
2017-09-15T12:28:07.292Z,70
2017-09-15T12:29:16.127Z,70
2017-09-15T12:30:24.960Z,80
2017-09-15T12:31:33.795Z,65
2017-09-15T12:32:42.639Z,65
2017-09-15T12:33:51.474Z,70
2017-09-15T12:35:00.314Z,75
2017-09-15T12:36:09.149Z,75
2017-09-15T12:37:17.985Z,75
2017-09-15T12:38:26.828Z,50
2017-09-15T12:39:35.667Z,45
2017-09-15T12:40:44.496Z,45
2017-09-15T12:41:53.337Z,50
2017-09-15T12:43:02.175Z,50
2017-09-15T12:44:11.012Z,50
2017-09-15T12:45:19.852Z,55
2017-09-15T12:46:28.696Z,55
2017-09-15T12:47:37.532Z,50
2017-09-15T12:48:46.701Z,50
2017-09-15T12:49:55.534Z,50
2017-09-15T12:51:04.373Z,50
2017-09-15T12:52:13.217Z,45
2017-09-15T12:53:22.051Z,50
2017-09-15T12:54:30.889Z,45
2017-09-15T12:55:39.723Z,60
2017-09-15T12:56:48.565Z,50
2017-09-15T12:57:57.405Z,60
2017-09-15T12:59:06.245Z,65
2017-09-15T13:00:15.083Z,65
2017-09-15T13:01:23.926Z,60
2017-09-15T13:02:32.764Z,50
2017-09-15T13:03:41.604Z,50
2017-09-15T13:04:50.438Z,45
2017-09-15T13:05:59.277Z,45
2017-09-15T13:07:08.119Z,35
2017-09-15T13:08:16.957Z,30
2017-09-15T13:09:25.799Z,25
2017-09-15T13:10:34.639Z,25
2017-09-15T13:11:43.478Z,45
2017-09-15T13:12:52.319Z,40
2017-09-15T13:14:01.156Z,45
2017-09-15T13:15:09.994Z,40
2017-09-15T13:16:18.828Z,40
2017-09-15T13:17:27.669Z,35
2017-09-15T13:18:36.503Z,35
2017-09-15T13:19:45.344Z,35
2017-09-15T13:20:54.184Z,35
2017-09-15T13:22:03.021Z,40
2017-09-15T13:23:11.861Z,35
2017-09-15T13:24:20.699Z,35
2017-09-15T13:25:29.533Z,35
2017-09-15T13:26:38.694Z,40
2017-09-15T13:27:47.540Z,40
2017-09-15T13:28:56.374Z,40
2017-09-15T13:30:05.215Z,40
2017-09-15T13:31:14.052Z,40
2017-09-15T13:32:22.894Z,40
2017-09-15T13:33:31.730Z,45
2017-09-15T13:34:40.573Z,45
2017-09-15T13:35:49.410Z,45
2017-09-15T13:36:58.244Z,40
2017-09-15T13:38:07.085Z,40
2017-09-15T13:39:15.924Z,40
2017-09-15T13:40:24.759Z,40
2017-09-15T13:41:33.596Z,35
2017-09-15T13:42:42.431Z,40
2017-09-15T13:43:51.272Z,35
2017-09-15T13:45:00.112Z,20
2017-09-15T13:46:08.958Z,20
2017-09-15T13:47:17.789Z,25
2017-09-15T13:48:26.634Z,25
2017-09-15T13:49:35.469Z,25
2017-09-15T13:50:44.306Z,30
2017-09-15T13:51:53.145Z,30
2017-09-15T13:53:01.984Z,35
2017-09-15T13:54:10.820Z,35
2017-09-15T13:55:19.658Z,35
2017-09-15T13:56:28.821Z,35
2017-09-15T13:57:37.985Z,35
2017-09-15T13:58:46.820Z,35
2017-09-15T13:59:55.661Z,30
2017-09-15T14:01:04.496Z,30
2017-09-15T14:02:13.660Z,30
2017-09-15T14:03:22.491Z,25
2017-09-15T14:04:31.332Z,25
2017-09-15T14:05:40.174Z,20
2017-09-15T14:06:49.010Z,20
2017-09-15T14:07:57.845Z,15
2017-09-15T14:09:06.686Z,15
2017-09-15T14:10:15.523Z,10
2017-09-15T14:11:24.360Z,10
2017-09-15T14:12:33.198Z,10
2017-09-15T14:13:42.041Z,5
2017-09-15T14:14:50.876Z,5
2017-09-15T14:15:59.714Z,5
2017-09-15T14:17:08.552Z,5
2017-09-15T14:18:17.390Z,5
2017-09-15T14:19:26.226Z,0
2017-09-15T14:20:35.069Z,0
2017-09-15T14:21:43.906Z,0
2017-09-15T14:22:52.745Z,0
2017-09-15T14:24:01.582Z,0
2017-09-15T14:25:10.418Z,0
2017-09-15T14:26:19.458Z,0
2017-09-15T14:27:28.294Z,0
2017-09-15T14:28:37.131Z,0
2017-09-15T14:29:45.969Z,0
2017-09-15T14:30:54.811Z,0
2017-09-15T14:32:03.644Z,0
2017-09-15T14:33:12.482Z,0
2017-09-15T14:34:21.316Z,0
2017-09-15T14:35:30.155Z,0
2017-09-15T14:36:38.987Z,5
2017-09-15T14:37:48.354Z,5
2017-09-15T14:38:57.194Z,5
2017-09-15T14:40:06.033Z,15
2017-09-15T14:41:14.873Z,10
2017-09-15T14:42:24.032Z,15
2017-09-15T14:43:32.883Z,15
2017-09-15T14:44:41.719Z,25
2017-09-15T14:45:50.559Z,25
2017-09-15T14:46:59.393Z,25
2017-09-15T14:48:08.235Z,30
2017-09-15T14:49:17.072Z,25
2017-09-15T14:50:25.904Z,25
2017-09-15T14:51:34.745Z,30
2017-09-15T14:52:43.586Z,30
2017-09-15T14:53:52.415Z,30
2017-09-15T14:55:01.254Z,30
2017-09-15T14:56:10.087Z,35
2017-09-15T14:57:18.924Z,40
2017-09-15T14:58:27.758Z,40
2017-09-15T14:59:37.251Z,40
2017-09-15T15:00:46.085Z,45
2017-09-15T15:01:54.927Z,40
2017-09-15T15:03:03.758Z,45
2017-09-15T15:04:12.588Z,35
2017-09-15T15:05:21.427Z,35
2017-09-15T15:06:30.261Z,30
2017-09-15T15:07:39.091Z,30
2017-09-15T15:08:47.935Z,25
2017-09-15T15:09:56.767Z,25
2017-09-15T15:11:05.602Z,25
2017-09-15T15:12:14.444Z,20
2017-09-15T15:13:23.284Z,20
2017-09-15T15:14:32.117Z,20
2017-09-15T15:15:40.955Z,20
2017-09-15T15:16:49.788Z,20
2017-09-15T15:17:58.626Z,20
2017-09-15T15:19:07.464Z,20
2017-09-15T15:20:16.300Z,20
2017-09-15T15:21:25.136Z,20
2017-09-15T15:22:33.974Z,20
2017-09-15T15:23:42.807Z,20
2017-09-15T15:24:51.646Z,20
2017-09-15T15:26:00.483Z,20
2017-09-15T15:27:09.315Z,20
2017-09-15T15:28:18.156Z,25
2017-09-15T15:29:27.314Z,25
2017-09-15T15:30:36.145Z,25
2017-09-15T15:31:44.990Z,25
2017-09-15T15:32:53.823Z,25
2017-09-15T15:34:02.655Z,25
2017-09-15T15:35:11.492Z,25
2017-09-15T15:36:20.332Z,25
2017-09-15T15:37:29.163Z,20
2017-09-15T15:38:38.330Z,20
2017-09-15T15:39:47.160Z,20
2017-09-15T15:40:55.997Z,20
2017-09-15T15:42:04.831Z,20
2017-09-15T15:43:13.668Z,20
2017-09-15T15:44:22.502Z,20
2017-09-15T15:45:31.341Z,20
2017-09-15T15:46:40.177Z,20
2017-09-15T15:47:49.007Z,20
2017-09-15T15:48:57.845Z,15
2017-09-15T15:50:06.684Z,15
2017-09-15T15:51:15.516Z,15
2017-09-15T15:52:24.358Z,15
2017-09-15T15:53:33.189Z,15
2017-09-15T15:54:42.028Z,15
2017-09-15T15:55:50.865Z,15
2017-09-15T15:56:59.702Z,15
2017-09-15T15:58:08.536Z,15
2017-09-15T15:59:17.373Z,15
2017-09-15T16:00:26.208Z,15
2017-09-15T16:01:35.045Z,15
2017-09-15T16:02:43.883Z,15
2017-09-15T16:03:52.717Z,15
2017-09-15T16:05:01.554Z,15
2017-09-15T16:06:10.392Z,15
2017-09-15T16:07:19.226Z,15
2017-09-15T16:08:28.062Z,10
2017-09-15T16:09:36.899Z,10
2017-09-15T16:10:45.737Z,10
2017-09-15T16:11:54.575Z,10
2017-09-15T16:13:03.407Z,10
2017-09-15T16:14:12.247Z,10
2017-09-15T16:15:21.083Z,10
2017-09-15T16:16:29.916Z,10
2017-09-15T16:17:38.752Z,10
2017-09-15T16:18:47.922Z,10
2017-09-15T16:19:57.077Z,10
2017-09-15T16:21:05.915Z,10
2017-09-15T16:22:14.751Z,10
2017-09-15T16:23:23.586Z,10
2017-09-15T16:24:32.420Z,10
2017-09-15T16:25:41.254Z,10
2017-09-15T16:26:50.098Z,10
2017-09-15T16:27:58.932Z,10
2017-09-15T16:29:07.765Z,5
2017-09-15T16:30:16.600Z,5
2017-09-15T16:31:25.440Z,5
2017-09-15T16:32:34.273Z,5
2017-09-15T16:33:43.108Z,5
2017-09-15T16:34:51.940Z,5
2017-09-15T16:36:00.779Z,5
2017-09-15T16:37:09.608Z,5
2017-09-15T16:38:18.452Z,5
2017-09-15T16:39:27.286Z,5
2017-09-15T16:40:36.120Z,5
2017-09-15T16:41:44.958Z,5
2017-09-15T16:42:53.787Z,5
2017-09-15T16:44:02.625Z,5
2017-09-15T16:45:11.463Z,5
2017-09-15T16:46:20.297Z,5
2017-09-15T16:47:29.132Z,5
2017-09-15T16:48:37.966Z,5
2017-09-15T16:49:46.808Z,5
2017-09-15T16:50:55.640Z,5
2017-09-15T16:52:04.483Z,5
2017-09-15T16:53:13.316Z,5
2017-09-15T16:54:22.146Z,0
2017-09-15T16:55:30.984Z,0
2017-09-15T16:56:39.824Z,0
2017-09-15T16:57:48.662Z,0
2017-09-15T16:58:57.499Z,0
2017-09-15T17:00:06.337Z,0
2017-09-15T17:01:15.171Z,0
2017-09-15T17:02:24.008Z,0
2017-09-15T17:03:32.843Z,0
2017-09-15T17:04:41.673Z,0
2017-09-15T17:05:50.514Z,0
2017-09-15T17:06:59.672Z,0
2017-09-15T17:08:08.519Z,0
2017-09-15T17:09:17.357Z,0
2017-09-15T17:10:26.520Z,0
2017-09-15T17:11:35.355Z,0
2017-09-15T17:12:44.183Z,0
2017-09-15T17:13:53.021Z,0
2017-09-15T17:15:01.854Z,0
2017-09-15T17:16:10.689Z,0
2017-09-15T17:17:19.522Z,0
2017-09-15T17:18:28.365Z,0
2017-09-15T17:19:37.207Z,0
2017-09-15T17:20:46.039Z,0
2017-09-15T17:21:54.878Z,0
2017-09-15T17:23:03.714Z,0
2017-09-15T17:24:12.549Z,0
2017-09-15T17:25:21.387Z,0
2017-09-15T17:26:30.227Z,0
2017-09-15T17:27:39.057Z,0
2017-09-15T17:28:47.907Z,0
2017-09-15T17:29:56.737Z,0
2017-09-15T17:31:05.575Z,0
2017-09-15T17:32:14.416Z,0
2017-09-15T17:33:23.246Z,0
2017-09-15T17:34:32.081Z,0
2017-09-15T17:35:40.920Z,0
2017-09-15T17:36:49.755Z,0
2017-09-15T17:37:58.587Z,0
2017-09-15T17:39:07.434Z,0
2017-09-15T17:40:16.261Z,0
2017-09-15T17:41:25.092Z,0
2017-09-15T17:42:33.930Z,0
2017-09-15T17:43:42.763Z,0
2017-09-15T17:44:51.598Z,0
2017-09-15T17:46:00.436Z,0
2017-09-15T17:47:09.269Z,0
2017-09-15T17:48:18.113Z,0
2017-09-15T17:49:26.947Z,0
2017-09-15T17:50:35.783Z,0
2017-09-15T17:51:44.625Z,0
2017-09-15T17:52:53.456Z,0
2017-09-15T17:54:02.291Z,0
2017-09-15T17:55:11.128Z,0
2017-09-15T17:56:19.965Z,0
2017-09-15T17:57:28.802Z,0
2017-09-15T17:58:37.637Z,0
2017-09-15T17:59:46.469Z,0
2017-09-15T18:00:55.305Z,0
2017-09-15T18:02:04.141Z,0
2017-09-15T18:03:12.974Z,0
2017-09-15T18:04:21.809Z,0
2017-09-15T18:05:30.645Z,0
2017-09-15T18:06:39.482Z,0
2017-09-15T18:07:48.320Z,0
2017-09-15T18:08:57.156Z,0
2017-09-15T18:10:05.992Z,0
2017-09-15T18:11:14.824Z,0
2017-09-15T18:12:23.661Z,0
2017-09-15T18:13:32.497Z,0
2017-09-15T18:14:41.348Z,0
2017-09-15T18:15:50.179Z,0
2017-09-15T18:16:59.019Z,0
2017-09-15T18:18:07.857Z,0
2017-09-15T18:19:16.688Z,0
2017-09-15T18:20:25.527Z,0
2017-09-15T18:21:34.369Z,0
2017-09-15T18:22:43.201Z,0
2017-09-15T18:23:52.038Z,0
2017-09-15T18:25:00.893Z,0
2017-09-15T18:26:09.714Z,0
2017-09-15T18:27:18.539Z,0
2017-09-15T18:28:27.381Z,0
2017-09-15T18:29:36.214Z,0
2017-09-15T18:30:45.049Z,0
2017-09-15T18:31:53.884Z,0
2017-09-15T18:33:02.721Z,0
2017-09-15T18:34:11.558Z,0
2017-09-15T18:35:20.397Z,0
2017-09-15T18:36:29.228Z,0
2017-09-15T18:37:38.063Z,0
2017-09-15T18:38:46.899Z,0
2017-09-15T18:39:56.064Z,0
2017-09-15T18:41:04.898Z,0
2017-09-15T18:42:13.737Z,0
2017-09-15T18:43:22.568Z,0
2017-09-15T18:44:31.403Z,0
2017-09-15T18:45:40.238Z,0
2017-09-15T18:46:49.075Z,0
2017-09-15T18:47:57.909Z,0
2017-09-15T18:49:06.746Z,0
2017-09-15T18:50:15.580Z,0
2017-09-15T18:51:24.744Z,0
2017-09-15T18:52:33.585Z,0
2017-09-15T18:53:42.422Z,0
2017-09-15T18:54:51.251Z,0
2017-09-15T18:56:00.090Z,0
2017-09-15T18:57:09.249Z,0
2017-09-15T18:58:18.087Z,0
2017-09-15T18:59:27.252Z,0
2017-09-15T19:00:36.086Z,0
2017-09-15T19:01:44.918Z,0
2017-09-15T19:02:53.755Z,0
2017-09-15T19:04:02.595Z,0
2017-09-15T19:05:11.429Z,0
2017-09-15T19:06:20.267Z,0
2017-09-15T19:07:29.117Z,0
2017-09-15T19:08:37.956Z,0
2017-09-15T19:09:46.794Z,0
2017-09-15T19:10:55.628Z,0
2017-09-15T19:12:04.467Z,0
2017-09-15T19:13:13.301Z,0
2017-09-15T19:14:22.136Z,0
2017-09-15T19:15:30.972Z,0
2017-09-15T19:16:39.816Z,0
2017-09-15T19:17:48.646Z,0
2017-09-15T19:18:57.489Z,0
2017-09-15T19:20:06.318Z,0
2017-09-15T19:21:15.153Z,0
2017-09-15T19:22:24.015Z,0
2017-09-15T19:23:32.829Z,0
2017-09-15T19:24:41.670Z,0
2017-09-15T19:25:50.508Z,0
2017-09-15T19:26:59.349Z,0
2017-09-15T19:28:08.185Z,0
2017-09-15T19:29:17.023Z,0
2017-09-15T19:30:25.860Z,0
2017-09-15T19:31:34.692Z,0
2017-09-15T19:32:43.533Z,0
2017-09-15T19:33:52.367Z,0
2017-09-15T19:35:01.205Z,0
2017-09-15T19:36:10.041Z,0
2017-09-15T19:37:18.875Z,0
2017-09-15T19:38:27.703Z,0
2017-09-15T19:39:36.861Z,0
2017-09-15T19:40:45.699Z,0
2017-09-15T19:41:54.533Z,0
2017-09-15T19:43:03.367Z,0
2017-09-15T19:44:12.205Z,0
2017-09-15T19:45:21.040Z,0
2017-09-15T19:46:29.878Z,0
2017-09-15T19:47:38.716Z,0
2017-09-15T19:48:47.552Z,0
2017-09-15T19:49:56.387Z,0
2017-09-15T19:51:05.225Z,0
2017-09-15T19:52:14.059Z,0
2017-09-15T19:53:22.899Z,0
2017-09-15T19:54:32.067Z,0
2017-09-15T19:55:40.901Z,0
2017-09-15T19:56:49.740Z,0
2017-09-15T19:57:58.578Z,0
2017-09-15T19:59:07.418Z,0
2017-09-15T20:00:16.249Z,0
2017-09-15T20:01:25.082Z,0
2017-09-15T20:02:33.916Z,0
2017-09-15T20:03:42.752Z,0
2017-09-15T20:04:51.596Z,0
2017-09-15T20:06:00.428Z,0
2017-09-15T20:07:09.263Z,0
2017-09-15T20:08:18.098Z,0
2017-09-15T20:09:26.934Z,0
2017-09-15T20:10:35.769Z,0
2017-09-15T20:11:44.606Z,0
2017-09-15T20:12:53.439Z,0
2017-09-15T20:14:02.276Z,0
2017-09-15T20:15:11.111Z,0
2017-09-15T20:16:19.951Z,0
2017-09-15T20:17:28.783Z,0
2017-09-15T20:18:37.955Z,0
2017-09-15T20:19:46.794Z,0
2017-09-15T20:20:55.634Z,0
2017-09-15T20:22:04.476Z,0
2017-09-15T20:23:13.313Z,0
2017-09-15T20:24:22.149Z,0
2017-09-15T20:25:30.985Z,0
2017-09-15T20:26:39.822Z,0
2017-09-15T20:27:48.652Z,0
2017-09-15T20:28:57.489Z,0
2017-09-15T20:30:06.328Z,0
2017-09-15T20:31:15.164Z,0
2017-09-15T20:32:24.005Z,0
2017-09-15T20:33:32.837Z,0
2017-09-15T20:34:41.672Z,0
2017-09-15T20:35:50.510Z,0
2017-09-15T20:36:59.344Z,0
2017-09-15T20:38:08.184Z,0
2017-09-15T20:39:17.024Z,0
2017-09-15T20:40:25.860Z,0
2017-09-15T20:41:34.692Z,0
2017-09-15T20:42:43.535Z,0
2017-09-15T20:43:52.372Z,0
2017-09-15T20:45:01.202Z,0
2017-09-15T20:46:10.040Z,0
2017-09-15T20:47:18.874Z,0
2017-09-15T20:48:27.715Z,0
2017-09-15T20:49:36.550Z,0
2017-09-15T20:50:45.389Z,0
2017-09-15T20:51:54.223Z,0
2017-09-15T20:53:03.057Z,0
2017-09-15T20:54:11.894Z,0
2017-09-15T20:55:20.724Z,0
2017-09-15T20:56:29.562Z,0
2017-09-15T20:57:38.402Z,0
2017-09-15T20:58:47.238Z,0
2017-09-15T20:59:56.404Z,0
2017-09-15T21:01:05.236Z,0
2017-09-15T21:02:14.074Z,0
2017-09-15T21:03:22.907Z,0
2017-09-15T21:04:31.746Z,0
2017-09-15T21:05:40.582Z,0
2017-09-15T21:06:49.419Z,0
2017-09-15T21:07:58.257Z,0
2017-09-15T21:09:07.095Z,0
2017-09-15T21:10:15.933Z,0
2017-09-15T21:11:24.766Z,0
2017-09-15T21:12:33.600Z,0
2017-09-15T21:13:42.438Z,0
2017-09-15T21:14:51.272Z,0
2017-09-15T21:16:00.112Z,0
2017-09-15T21:17:08.945Z,0
2017-09-15T21:18:17.779Z,0
2017-09-15T21:19:26.619Z,0
2017-09-15T21:20:35.456Z,0
2017-09-15T21:21:44.286Z,0
2017-09-15T21:22:53.448Z,0
2017-09-15T21:24:02.278Z,0
2017-09-15T21:25:11.115Z,0
2017-09-15T21:26:19.954Z,0
2017-09-15T21:27:28.787Z,0
2017-09-15T21:28:37.630Z,0
2017-09-15T21:29:46.467Z,0
2017-09-15T21:30:55.317Z,0
2017-09-15T21:32:04.135Z,0
2017-09-15T21:33:12.969Z,0
2017-09-15T21:34:22.490Z,0
2017-09-15T21:35:31.325Z,0
2017-09-15T21:36:40.166Z,0
2017-09-15T21:37:49.322Z,0
2017-09-15T21:38:58.162Z,0
2017-09-15T21:40:06.995Z,0
2017-09-15T21:41:15.833Z,0
2017-09-15T21:42:24.667Z,0
2017-09-15T21:43:33.500Z,0
2017-09-15T21:44:42.341Z,0
2017-09-15T21:45:51.174Z,0
2017-09-15T21:47:00.012Z,0
2017-09-15T21:48:09.174Z,0
2017-09-15T21:49:18.013Z,0
2017-09-15T21:50:26.845Z,0
2017-09-15T21:51:35.683Z,0
2017-09-15T21:52:44.518Z,0
2017-09-15T21:53:53.357Z,0
2017-09-15T21:55:02.195Z,0
2017-09-15T21:56:11.024Z,0
2017-09-15T21:57:19.860Z,0
2017-09-15T21:58:28.702Z,0
2017-09-15T21:59:37.535Z,0
2017-09-15T22:00:46.371Z,0
2017-09-15T22:01:55.210Z,0
2017-09-15T22:03:04.043Z,0
2017-09-15T22:04:12.873Z,0
2017-09-15T22:05:21.716Z,0
2017-09-15T22:06:30.552Z,0
2017-09-15T22:07:39.387Z,0
2017-09-15T22:08:48.226Z,0
2017-09-15T22:09:57.060Z,0
2017-09-15T22:11:05.896Z,0
2017-09-15T22:12:14.732Z,0
2017-09-15T22:13:23.569Z,0
2017-09-15T22:14:32.404Z,0
2017-09-15T22:15:41.246Z,0
2017-09-15T22:16:50.079Z,0
2017-09-15T22:17:58.913Z,0
2017-09-15T22:19:07.750Z,0
2017-09-15T22:20:16.604Z,0
2017-09-15T22:21:25.438Z,0
2017-09-15T22:22:34.280Z,0
2017-09-15T22:23:43.117Z,0
2017-09-15T22:24:51.949Z,0
2017-09-15T22:26:00.788Z,0
2017-09-15T22:27:09.626Z,0
2017-09-15T22:28:18.461Z,0
2017-09-15T22:29:27.300Z,0
2017-09-15T22:30:36.133Z,0
2017-09-15T22:31:44.973Z,0
2017-09-15T22:32:53.933Z,0
2017-09-15T22:34:02.773Z,0
2017-09-15T22:35:11.604Z,0
2017-09-15T22:36:20.525Z,0
2017-09-15T22:37:29.384Z,0
2017-09-15T22:38:38.222Z,0
2017-09-15T22:39:47.461Z,0
2017-09-15T22:40:56.295Z,0
2017-09-15T22:42:05.131Z,0
2017-09-15T22:43:13.964Z,0
2017-09-15T22:44:23.163Z,0
2017-09-15T22:45:32.034Z,0
2017-09-15T22:46:40.920Z,0
2017-09-15T22:47:50.109Z,0
2017-09-15T22:48:58.944Z,0
2017-09-15T22:50:07.779Z,0
2017-09-15T22:51:16.617Z,0
2017-09-15T22:52:25.790Z,0
2017-09-15T22:53:34.622Z,0
2017-09-15T22:54:43.465Z,0
2017-09-15T22:55:52.297Z,0
2017-09-15T22:57:01.153Z,0
2017-09-15T22:58:10.808Z,0
2017-09-15T22:59:20.365Z,0
2017-09-15T23:00:30.050Z,0
2017-09-15T23:01:38.977Z,0
2017-09-15T23:02:47.910Z,0
2017-09-15T23:03:57.003Z,0
2017-09-15T23:05:05.996Z,0
2017-09-15T23:06:14.869Z,0
2017-09-15T23:07:24.354Z,0
2017-09-15T23:08:33.209Z,0
2017-09-15T23:09:42.194Z,0
2017-09-15T23:10:51.303Z,0
2017-09-15T23:12:00.133Z,0
2017-09-15T23:13:08.969Z,0
2017-09-15T23:14:17.827Z,0
2017-09-15T23:15:27.856Z,0
2017-09-15T23:16:37.172Z,0
2017-09-15T23:17:46.006Z,0
2017-09-15T23:18:55.162Z,0
2017-09-15T23:20:04.338Z,0
2017-09-15T23:21:13.572Z,0
2017-09-15T23:22:22.788Z,0
2017-09-15T23:23:31.764Z,0
2017-09-15T23:24:40.656Z,0
2017-09-15T23:25:50.188Z,0
2017-09-15T23:26:59.180Z,0
2017-09-15T23:28:08.030Z,0
2017-09-15T23:29:17.004Z,0
2017-09-15T23:30:26.248Z,0
2017-09-15T23:31:35.184Z,0
2017-09-15T23:32:44.205Z,0
2017-09-15T23:33:53.129Z,0
2017-09-15T23:35:02.307Z,0
2017-09-15T23:36:11.242Z,0
2017-09-15T23:37:20.526Z,0
2017-09-15T23:38:29.704Z,0
2017-09-15T23:39:38.538Z,0
2017-09-15T23:40:47.370Z,0
2017-09-15T23:41:56.209Z,0
2017-09-15T23:43:05.040Z,0
2017-09-15T23:44:13.887Z,0
2017-09-15T23:45:22.723Z,0
2017-09-15T23:46:31.559Z,0
2017-09-15T23:47:40.388Z,0
2017-09-15T23:48:49.221Z,0
2017-09-15T23:49:58.055Z,0
2017-09-15T23:51:06.891Z,0
2017-09-15T23:52:15.733Z,0
2017-09-15T23:53:24.566Z,0
2017-09-15T23:54:33.396Z,0
2017-09-15T23:55:42.572Z,0
2017-09-15T23:56:51.416Z,0
2017-09-15T23:58:00.250Z,0
2017-09-15T23:59:09.083Z,0
